| time (UTC) | temp F | wind direction | speed MPH | gust MPH | rain 1hr in | rain 24hr in | rain mn in | humidity % | barometer mb |
| 20260505021547 | 63 | 303 | 1.0 | 1.0 | 0.00 | 0.00 | 0.00 | 49 | 1007.6 |
| 20260505021044 | 64 | 340 | 0.0 | 1.0 | 0.00 | 0.00 | 0.00 | 48 | 1007.8 |
| 20260505020544 | 64 | 277 | 1.0 | 1.0 | 0.00 | 0.00 | 0.00 | 48 | 1007.9 |
| 20260505020041 | 64 | 295 | 0.0 | 1.0 | 0.00 | 0.00 | 0.00 | 48 | 1008.1 |
| 20260505015538 | 64 | 332 | 1.0 | 1.0 | 0.00 | 0.00 | 0.00 | 48 | 1008.1 |
| 20260505015035 | 64 | 283 | 2.0 | 3.0 | 0.00 | 0.00 | 0.00 | 47 | 1008.0 |
| 20260505014532 | 64 | 321 | 1.0 | 1.0 | 0.00 | 0.00 | 0.00 | 48 | 1008.0 |
| 20260505014029 | 64 | 307 | 0.0 | 1.0 | 0.00 | 0.00 | 0.00 | 48 | 1008.0 |
| 20260505013526 | 64 | 297 | 1.0 | 1.0 | 0.00 | 0.00 | 0.00 | 48 | 1008.1 |
| 20260505013023 | 64 | 329 | 0.0 | 1.0 | 0.00 | 0.00 | 0.00 | 47 | 1008.1 |
| 20260505012522 | 64 | 313 | 1.0 | 1.0 | 0.00 | 0.00 | 0.00 | 47 | 1007.7 |
| 20260505012018 | 65 | 306 | 0.0 | 2.0 | 0.00 | 0.00 | 0.00 | 46 | 1008.0 |
| 20260505011513 | 65 | 280 | 1.0 | 2.0 | 0.00 | 0.00 | 0.00 | 45 | 1007.8 |
| 20260505011011 | 65 | 297 | 1.0 | 2.0 | 0.00 | 0.00 | 0.00 | 45 | 1007.7 |
| 20260505010506 | 65 | 285 | 1.0 | 3.0 | 0.00 | 0.00 | 0.00 | 44 | 1007.7 |
| 20260505010003 | 65 | 319 | 1.0 | 2.0 | 0.00 | 0.00 | 0.00 | 44 | 1007.5 |
| 20260505005459 | 65 | 328 | 0.0 | 1.0 | 0.00 | 0.00 | 0.00 | 45 | 1007.7 |
| 20260505004957 | 65 | 243 | 2.0 | 2.0 | 0.00 | 0.00 | 0.00 | 44 | 1007.4 |
| 20260505004454 | 65 | 332 | 1.0 | 1.0 | 0.00 | 0.00 | 0.00 | 44 | 1007.5 |
| 20260505003951 | 65 | 318 | 1.0 | 3.0 | 0.00 | 0.00 | 0.00 | 43 | 1007.5 |
| 20260505003448 | 66 | 317 | 0.0 | 1.0 | 0.00 | 0.00 | 0.00 | 43 | 1007.4 |
| 20260505002944 | 66 | 320 | 1.0 | 2.0 | 0.00 | 0.00 | 0.00 | 43 | 1007.4 |
| 20260505002440 | 66 | 292 | 1.0 | 2.0 | 0.00 | 0.00 | 0.00 | 42 | 1007.4 |
| 20260505001939 | 66 | 318 | 1.0 | 2.0 | 0.00 | 0.00 | 0.00 | 43 | 1007.3 |
| 20260505001436 | 66 | 345 | 1.0 | 2.0 | 0.00 | 0.00 | 0.00 | 41 | 1007.1 |
| 20260505000933 | 66 | 336 | 0.0 | 1.0 | 0.00 | 0.00 | 0.00 | 41 | 1007.2 |
| 20260505000431 | 67 | 344 | 1.0 | 2.0 | 0.00 | 0.00 | 0.00 | 41 | 1007.2 |
| 20260504235927 | 67 | 245 | 1.0 | 2.0 | 0.00 | 0.00 | 0.00 | 39 | 1007.2 |
| 20260504235425 | 67 | 262 | 2.0 | 3.0 | 0.00 | 0.00 | 0.00 | 40 | 1007.3 |
| 20260504234921 | 67 | 316 | 1.0 | 2.0 | 0.00 | 0.00 | 0.00 | 40 | 1007.1 |
| 20260504234419 | 68 | 256 | 2.0 | 3.0 | 0.00 | 0.00 | 0.00 | 39 | 1007.1 |
| 20260504233915 | 68 | 282 | 1.0 | 2.0 | 0.00 | 0.00 | 0.00 | 40 | 1007.2 |
| 20260504233411 | 68 | 231 | 2.0 | 3.0 | 0.00 | 0.00 | 0.00 | 40 | 1007.1 |
| 20260504232908 | 68 | 327 | 1.0 | 3.0 | 0.00 | 0.00 | 0.00 | 41 | 1007.1 |
| 20260504232404 | 68 | 276 | 1.0 | 2.0 | 0.00 | 0.00 | 0.00 | 40 | 1007.4 |
| 20260504231901 | 68 | 317 | 1.0 | 2.0 | 0.00 | 0.00 | 0.00 | 41 | 1007.2 |
| 20260504231358 | 69 | 296 | 0.0 | 1.0 | 0.00 | 0.00 | 0.00 | 40 | 1007.1 |
| 20260504230854 | 69 | 284 | 1.0 | 3.0 | 0.00 | 0.00 | 0.00 | 39 | 1007.2 |
| 20260504230352 | 69 | 251 | 2.0 | 3.0 | 0.00 | 0.00 | 0.00 | 39 | 1007.0 |
| 20260504225850 | 69 | 328 | 2.0 | 3.0 | 0.00 | 0.00 | 0.00 | 38 | 1007.2 |
| 20260504225346 | 69 | 323 | 0.0 | 2.0 | 0.00 | 0.00 | 0.00 | 41 | 1007.3 |
| 20260504224844 | 70 | 320 | 0.0 | 2.0 | 0.00 | 0.00 | 0.00 | 40 | 1007.3 |
| 20260504224341 | 70 | 262 | 2.0 | 2.0 | 0.00 | 0.00 | 0.00 | 39 | 1007.3 |
| 20260504223838 | 70 | 280 | 2.0 | 2.0 | 0.00 | 0.00 | 0.00 | 39 | 1007.3 |
| 20260504223333 | 70 | 261 | 1.0 | 2.0 | 0.00 | 0.00 | 0.00 | 39 | 1007.5 |
| 20260504222830 | 70 | 307 | 1.0 | 1.0 | 0.00 | 0.00 | 0.00 | 40 | 1007.2 |
| 20260504222327 | 70 | 337 | 0.0 | 1.0 | 0.00 | 0.00 | 0.00 | 40 | 1007.3 |
| 20260504221825 | 70 | 304 | 1.0 | 2.0 | 0.00 | 0.00 | 0.00 | 40 | 1007.4 |
| 20260504221321 | 71 | 316 | 1.0 | 2.0 | 0.00 | 0.00 | 0.00 | 37 | 1007.3 |
| 20260504220818 | 70 | 347 | 0.0 | 1.0 | 0.00 | 0.00 | 0.00 | 40 | 1007.2 |
| 20260504220315 | 70 | 319 | 1.0 | 2.0 | 0.00 | 0.00 | 0.00 | 38 | 1007.2 |
| 20260504215813 | 70 | 267 | 1.0 | 1.0 | 0.00 | 0.00 | 0.00 | 39 | 1007.4 |
| 20260504215309 | 71 | 236 | 2.0 | 2.0 | 0.00 | 0.00 | 0.00 | 36 | 1007.4 |
| 20260504214805 | 71 | 249 | 1.0 | 2.0 | 0.00 | 0.00 | 0.00 | 35 | 1007.2 |
| 20260504214302 | 71 | 281 | 1.0 | 2.0 | 0.00 | 0.00 | 0.00 | 38 | 1007.3 |
| 20260504213758 | 71 | 300 | 2.0 | 3.0 | 0.00 | 0.00 | 0.00 | 37 | 1007.3 |
| 20260504213254 | 71 | 207 | 2.0 | 3.0 | 0.00 | 0.00 | 0.00 | 37 | 1007.1 |
| 20260504212752 | 71 | 253 | 1.0 | 1.0 | 0.00 | 0.00 | 0.00 | 37 | 1007.2 |
| 20260504212248 | 72 | 305 | 1.0 | 3.0 | 0.00 | 0.00 | 0.00 | 36 | 1007.2 |
| 20260504211746 | 72 | 258 | 1.0 | 3.0 | 0.00 | 0.00 | 0.00 | 36 | 1007.3 |
| 20260504211241 | 72 | 299 | 2.0 | 3.0 | 0.00 | 0.00 | 0.00 | 35 | 1007.3 |
| 20260504210739 | 73 | 251 | 1.0 | 2.0 | 0.00 | 0.00 | 0.00 | 36 | 1007.4 |
| 20260504210236 | 73 | 74 | 3.0 | 4.0 | 0.00 | 0.00 | 0.00 | 34 | 1007.4 |
| 20260504205733 | 73 | 304 | 2.0 | 3.0 | 0.00 | 0.00 | 0.00 | 33 | 1007.3 |
| 20260504205231 | 73 | 321 | 2.0 | 3.0 | 0.00 | 0.00 | 0.00 | 34 | 1007.3 |
| 20260504204729 | 73 | 269 | 2.0 | 4.0 | 0.00 | 0.00 | 0.00 | 32 | 1007.3 |
| 20260504204227 | 73 | 264 | 4.0 | 7.0 | 0.00 | 0.00 | 0.00 | 32 | 1007.4 |
| 20260504203726 | 73 | 305 | 4.0 | 6.0 | 0.00 | 0.00 | 0.00 | 33 | 1007.3 |
| 20260504203223 | 73 | 284 | 3.0 | 4.0 | 0.00 | 0.00 | 0.00 | 32 | 1007.4 |
| 20260504202723 | 73 | 327 | 1.0 | 2.0 | 0.00 | 0.00 | 0.00 | 35 | 1007.3 |
| 20260504202220 | 73 | 259 | 3.0 | 6.0 | 0.00 | 0.00 | 0.00 | 32 | 1007.6 |
| 20260504201717 | 73 | 277 | 3.0 | 6.0 | 0.00 | 0.00 | 0.00 | 32 | 1007.6 |
| 20260504201215 | 73 | 211 | 1.0 | 2.0 | 0.00 | 0.00 | 0.00 | 37 | 1007.5 |
| 20260504200712 | 73 | 353 | 1.0 | 2.0 | 0.00 | 0.00 | 0.00 | 31 | 1007.5 |
| 20260504200208 | 74 | 287 | 4.0 | 8.0 | 0.00 | 0.00 | 0.00 | 31 | 1007.8 |
| 20260504195705 | 73 | 257 | 4.0 | 6.0 | 0.00 | 0.00 | 0.00 | 31 | 1007.8 |
| 20260504195201 | 73 | 276 | 4.0 | 7.0 | 0.00 | 0.00 | 0.00 | 34 | 1008.0 |
| 20260504194658 | 72 | 327 | 1.0 | 3.0 | 0.00 | 0.00 | 0.00 | 33 | 1008.0 |
| 20260504194154 | 74 | 270 | 4.0 | 6.0 | 0.00 | 0.00 | 0.00 | 31 | 1008.1 |
| 20260504193650 | 74 | 266 | 2.0 | 6.0 | 0.00 | 0.00 | 0.00 | 33 | 1008.1 |
| 20260504193148 | 73 | 270 | 3.0 | 4.0 | 0.00 | 0.00 | 0.00 | 31 | 1008.1 |
| 20260504192646 | 73 | 280 | 5.0 | 7.0 | 0.00 | 0.00 | 0.00 | 31 | 1008.3 |
| 20260504192144 | 74 | 305 | 3.0 | 6.0 | 0.00 | 0.00 | 0.00 | 31 | 1008.1 |
| 20260504191642 | 75 | 244 | 6.0 | 8.0 | 0.00 | 0.00 | 0.00 | 30 | 1008.4 |
| 20260504191138 | 74 | 287 | 2.0 | 4.0 | 0.00 | 0.00 | 0.00 | 32 | 1008.5 |
| 20260504190634 | 74 | 314 | 2.0 | 6.0 | 0.00 | 0.00 | 0.00 | 31 | 1008.6 |
| 20260504190131 | 74 | 263 | 4.0 | 8.0 | 0.00 | 0.00 | 0.00 | 30 | 1008.4 |
| 20260504185627 | 75 | 249 | 5.0 | 7.0 | 0.00 | 0.00 | 0.00 | 32 | 1008.7 |
| 20260504185124 | 74 | 282 | 1.0 | 2.0 | 0.00 | 0.00 | 0.00 | 34 | 1008.8 |
| 20260504184620 | 74 | 292 | 2.0 | 6.0 | 0.00 | 0.00 | 0.00 | 30 | 1008.8 |
| 20260504184115 | 73 | 261 | 5.0 | 6.0 | 0.00 | 0.00 | 0.00 | 32 | 1008.8 |
| 20260504183613 | 74 | 271 | 4.0 | 4.0 | 0.00 | 0.00 | 0.00 | 30 | 1008.9 |
| 20260504183110 | 74 | 316 | 1.0 | 2.0 | 0.00 | 0.00 | 0.00 | 35 | 1008.9 |
| 20260504182607 | 74 | 331 | 1.0 | 3.0 | 0.00 | 0.00 | 0.00 | 34 | 1008.8 |
| 20260504182105 | 73 | 273 | 3.0 | 4.0 | 0.00 | 0.00 | 0.00 | 32 | 1008.8 |
| 20260504181602 | 73 | 309 | 2.0 | 3.0 | 0.00 | 0.00 | 0.00 | 30 | 1009.1 |
| 20260504181100 | 73 | 280 | 2.0 | 2.0 | 0.00 | 0.00 | 0.00 | 33 | 1009.1 |
| 20260504180558 | 72 | 302 | 1.0 | 6.0 | 0.00 | 0.00 | 0.00 | 37 | 1009.2 |
| 20260504180057 | 72 | 246 | 5.0 | 7.0 | 0.00 | 0.00 | 0.00 | 33 | 1009.2 |
| 20260504175554 | 73 | 231 | 5.0 | 7.0 | 0.00 | 0.00 | 0.00 | 31 | 1009.4 |
| 20260504175050 | 72 | 234 | 3.0 | 4.0 | 0.00 | 0.00 | 0.00 | 36 | 1009.4 |
| 20260504174549 | 71 | 290 | 2.0 | 4.0 | 0.00 | 0.00 | 0.00 | 32 | 1009.5 |
| 20260504174045 | 71 | 290 | 3.0 | 6.0 | 0.00 | 0.00 | 0.00 | 33 | 1009.6 |
| 20260504173542 | 71 | 252 | 4.0 | 8.0 | 0.00 | 0.00 | 0.00 | 33 | 1009.6 |
| 20260504173039 | 71 | 284 | 4.0 | 6.0 | 0.00 | 0.00 | 0.00 | 31 | 1009.7 |
| 20260504172535 | 71 | 298 | 2.0 | 3.0 | 0.00 | 0.00 | 0.00 | 32 | 1009.8 |
| 20260504172032 | 71 | 262 | 4.0 | 6.0 | 0.00 | 0.00 | 0.00 | 30 | 1010.0 |
| 20260504171529 | 71 | 271 | 4.0 | 7.0 | 0.00 | 0.00 | 0.00 | 33 | 1010.1 |
| 20260504171026 | 71 | 260 | 5.0 | 7.0 | 0.00 | 0.00 | 0.00 | 32 | 1009.9 |
| 20260504170522 | 71 | 300 | 2.0 | 2.0 | 0.00 | 0.00 | 0.00 | 34 | 1010.0 |
| 20260504160442 | 69 | 287 | 3.0 | 7.0 | 0.00 | 0.00 | 0.00 | 34 | 1010.8 |
| 20260504150906 | 66 | 300 | 3.0 | 6.0 | 0.00 | 0.00 | 0.00 | 34 | 1011.6 |
| 20260504150403 | 66 | 258 | 4.0 | 7.0 | 0.00 | 0.00 | 0.00 | 37 | 1011.7 |
| 20260504141332 | 62 | 305 | 2.0 | 4.0 | 0.00 | 0.00 | 0.00 | 41 | 1011.8 |
| 20260504140829 | 62 | 296 | 1.0 | 6.0 | 0.00 | 0.00 | 0.00 | 42 | 1011.7 |
| 20260504140324 | 62 | 258 | 4.0 | 4.0 | 0.00 | 0.00 | 0.00 | 40 | 1011.6 |
| 20260504130754 | 57 | 279 | 3.0 | 6.0 | 0.00 | 0.00 | 0.00 | 47 | 1012.0 |
| 20260504130249 | 57 | 256 | 5.0 | 6.0 | 0.00 | 0.00 | 0.00 | 48 | 1012.2 |
| 20260504120213 | 53 | 229 | 2.0 | 2.0 | 0.00 | 0.00 | 0.00 | 54 | 1011.8 |
| 20260504110641 | 51 | 307 | 1.0 | 2.0 | 0.00 | 0.00 | 0.00 | 53 | 1012.1 |
| 20260504110137 | 50 | 313 | 1.0 | 4.0 | 0.00 | 0.00 | 0.00 | 53 | 1012.1 |
| 20260504100603 | 40 | 340 | 0.0 | 0.0 | 0.00 | 0.00 | 0.00 | 73 | 1012.1 |
| 20260504081956 | 46 | 319 | 0.0 | 1.0 | 0.00 | 0.00 | 0.00 | 54 | 1012.3 |
| 20260504081454 | 46 | 310 | 1.0 | 2.0 | 0.00 | 0.00 | 0.00 | 53 | 1012.5 |
| 20260504080949 | 46 | 305 | 1.0 | 1.0 | 0.00 | 0.00 | 0.00 | 55 | 1012.4 |
| 20260504080446 | 45 | 309 | 1.0 | 1.0 | 0.00 | 0.00 | 0.00 | 56 | 1012.4 |
| 20260504050259 | 49 | 278 | 2.0 | 2.0 | 0.00 | 0.00 | 0.00 | 48 | 1012.5 |
| 20260504045756 | 49 | 276 | 2.0 | 3.0 | 0.00 | 0.00 | 0.00 | 48 | 1012.7 |
| 20260504045256 | 50 | 271 | 3.0 | 3.0 | 0.00 | 0.00 | 0.00 | 48 | 1012.8 |
| 20260504044754 | 50 | 281 | 2.0 | 3.0 | 0.00 | 0.00 | 0.00 | 47 | 1012.7 |
| 20260504044251 | 49 | 287 | 2.0 | 3.0 | 0.00 | 0.00 | 0.00 | 47 | 1012.7 |
| 20260504043748 | 49 | 275 | 3.0 | 3.0 | 0.00 | 0.00 | 0.00 | 49 | 1012.4 |
| 20260504043245 | 49 | 286 | 2.0 | 2.0 | 0.00 | 0.00 | 0.00 | 49 | 1012.7 |
| 20260504042743 | 49 | 282 | 2.0 | 3.0 | 0.00 | 0.00 | 0.00 | 50 | 1012.7 |
| 20260504042239 | 48 | 312 | 1.0 | 2.0 | 0.00 | 0.00 | 0.00 | 51 | 1012.3 |
| 20260504041736 | 49 | 329 | 1.0 | 1.0 | 0.00 | 0.00 | 0.00 | 55 | 1012.2 |
| 20260504041232 | 49 | 310 | 2.0 | 3.0 | 0.00 | 0.00 | 0.00 | 47 | 1012.2 |
| 20260504040728 | 50 | 323 | 0.0 | 2.0 | 0.00 | 0.00 | 0.00 | 50 | 1012.3 |
| 20260504040225 | 50 | 290 | 1.0 | 2.0 | 0.00 | 0.00 | 0.00 | 48 | 1012.3 |
| 20260504035721 | 50 | 304 | 2.0 | 2.0 | 0.00 | 0.00 | 0.00 | 46 | 1012.2 |
| 20260504035219 | 51 | 288 | 2.0 | 2.0 | 0.00 | 0.00 | 0.00 | 46 | 1012.5 |
| 20260504034716 | 50 | 305 | 2.0 | 2.0 | 0.00 | 0.00 | 0.00 | 45 | 1012.3 |
| 20260504034213 | 49 | 290 | 2.0 | 3.0 | 0.00 | 0.00 | 0.00 | 47 | 1012.2 |
| 20260504033711 | 50 | 282 | 2.0 | 2.0 | 0.00 | 0.00 | 0.00 | 49 | 1012.3 |
| 20260504033208 | 51 | 314 | 2.0 | 2.0 | 0.00 | 0.00 | 0.00 | 48 | 1012.4 |
| 20260504032705 | 51 | 281 | 2.0 | 3.0 | 0.00 | 0.00 | 0.00 | 45 | 1012.3 |
| 20260504032202 | 50 | 273 | 2.0 | 3.0 | 0.00 | 0.00 | 0.00 | 46 | 1012.1 |
| 20260504031659 | 50 | 303 | 2.0 | 3.0 | 0.00 | 0.00 | 0.00 | 47 | 1012.4 |
| 20260504031155 | 50 | 288 | 1.0 | 2.0 | 0.00 | 0.00 | 0.00 | 49 | 1011.9 |
| 20260504030652 | 50 | 300 | 1.0 | 2.0 | 0.00 | 0.00 | 0.00 | 47 | 1012.2 |
| 20260504030149 | 51 | 311 | 2.0 | 2.0 | 0.00 | 0.00 | 0.00 | 46 | 1012.0 |
| 20260504025645 | 51 | 292 | 2.0 | 2.0 | 0.00 | 0.00 | 0.00 | 45 | 1012.1 |
| 20260504025142 | 50 | 280 | 2.0 | 3.0 | 0.00 | 0.00 | 0.00 | 46 | 1012.0 |
| 20260504024640 | 50 | 292 | 2.0 | 2.0 | 0.00 | 0.00 | 0.00 | 47 | 1011.9 |
| 20260504024136 | 51 | 305 | 0.0 | 1.0 | 0.00 | 0.00 | 0.00 | 50 | 1012.0 |
| 20260504023633 | 51 | 286 | 2.0 | 2.0 | 0.00 | 0.00 | 0.00 | 45 | 1011.9 |
| 20260504023129 | 51 | 272 | 2.0 | 2.0 | 0.00 | 0.00 | 0.00 | 45 | 1012.0 |
| 20260504022625 | 51 | 276 | 2.0 | 2.0 | 0.00 | 0.00 | 0.00 | 45 | 1012.2 |
| 20260504022121 | 51 | 286 | 2.0 | 3.0 | 0.00 | 0.00 | 0.00 | 46 | 1012.1 |